Time;durP1;ratioP1;P1;durP2;ratioP2;P2;SDS_P1;SDS_P2;PMS_P1;PMS_P2;Temp;Humidity;BMP_temperature;BMP_pressure;BME280_temperature;BME280_humidity;BME280_pressure;Samples;Min_cycle;Max_cycle;Signal;HPM_P1;HPM_P2
2022/03/12 00:00:54;;;;;;;27.57;10.83;;;;;;;-2.63;41.05;101861.91;4196882;28;20344;-69
2022/03/12 00:03:21;;;;;;;31.30;11.27;;;;;;;-2.52;40.67;101856.53;4199547;28;20252;-68
2022/03/12 00:05:58;;;;;;;30.10;11.30;;;;;;;-2.64;40.95;101866.25;4202189;28;20254;-68
2022/03/12 00:08:30;;;;;;;29.47;10.43;;;;;;;-2.76;41.15;101856.91;4184212;28;20228;-68
2022/03/12 00:10:56;;;;;;;34.03;11.10;;;;;;;-2.67;40.56;101855.00;4188204;28;20437;-68
2022/03/12 00:13:24;;;;;;;31.83;11.37;;;;;;;-2.76;41.12;101851.69;4192910;28;22086;-67
2022/03/12 00:15:51;;;;;;;35.33;11.90;;;;;;;-2.83;41.62;101854.44;4193453;28;20767;-68
2022/03/12 00:18:19;;;;;;;28.90;10.33;;;;;;;-2.81;41.43;101855.25;4194724;28;20279;-67
2022/03/12 00:20:48;;;;;;;28.33;11.00;;;;;;;-2.80;41.50;101855.22;4185409;28;20248;-67
2022/03/12 00:23:18;;;;;;;31.67;11.23;;;;;;;-2.82;41.92;101849.19;4202908;28;20250;-68
2022/03/12 00:25:48;;;;;;;27.13;9.67;;;;;;;-2.64;40.77;101855.84;4205311;28;20240;-69
2022/03/12 00:28:16;;;;;;;28.70;10.53;;;;;;;-2.51;39.95;101853.00;4195866;28;20228;-69
2022/03/12 00:30:45;;;;;;;28.93;10.73;;;;;;;-2.53;40.28;101853.03;4205078;28;20251;-67
2022/03/12 00:33:12;;;;;;;33.00;11.53;;;;;;;-2.57;40.54;101843.56;4194714;28;21676;-68
2022/03/12 00:35:39;;;;;;;31.47;10.47;;;;;;;-2.52;40.30;101843.50;4195957;28;20292;-68
2022/03/12 00:38:05;;;;;;;28.07;10.60;;;;;;;-2.45;40.05;101839.88;4196736;28;20304;-68
2022/03/12 00:40:32;;;;;;;27.13;9.83;;;;;;;-2.41;39.86;101836.31;4208996;28;20232;-67
2022/03/12 00:42:59;;;;;;;27.00;10.93;;;;;;;-2.41;40.55;101832.00;4179965;28;21335;-68
2022/03/12 00:45:29;;;;;;;27.73;9.70;;;;;;;-2.43;40.39;101830.31;4192086;28;20335;-68
2022/03/12 00:47:55;;;;;;;28.23;10.40;;;;;;;-2.46;40.63;101832.94;4224118;28;21934;-70
2022/03/12 00:50:22;;;;;;;28.97;11.10;;;;;;;-2.42;40.28;101837.22;4190366;28;20757;-67
2022/03/12 00:52:48;;;;;;;28.27;10.00;;;;;;;-2.51;40.74;101834.78;4194743;28;20260;-69
2022/03/12 00:55:15;;;;;;;30.03;10.67;;;;;;;-2.63;41.37;101841.91;4191118;28;20235;-67
2022/03/12 00:57:41;;;;;;;30.03;10.53;;;;;;;-2.76;42.27;101832.59;4194057;28;22432;-68
2022/03/12 01:00:14;;;;;;;29.93;10.97;;;;;;;-2.94;43.91;101832.91;4193598;28;22049;-71
2022/03/12 01:02:40;;;;;;;42.50;13.27;;;;;;;-3.01;43.79;101821.72;4211281;28;21821;-71
2022/03/12 01:05:07;;;;;;;42.13;14.70;;;;;;;-2.99;43.69;101822.56;4194972;28;20856;-68
2022/03/12 01:07:34;;;;;;;32.50;12.43;;;;;;;-2.94;42.71;101825.94;4204716;28;20237;-70
2022/03/12 01:10:00;;;;;;;33.87;12.47;;;;;;;-3.03;42.96;101832.13;4196447;28;20744;-69
2022/03/12 01:12:27;;;;;;;34.73;11.80;;;;;;;-3.09;43.37;101824.44;4193634;28;20441;-69
2022/03/12 01:14:54;;;;;;;34.03;12.00;;;;;;;-3.08;43.59;101828.75;4193694;28;20299;-69
2022/03/12 01:17:21;;;;;;;33.67;11.97;;;;;;;-3.13;42.98;101820.16;4191114;28;20279;-66
2022/03/12 01:19:51;;;;;;;29.63;12.37;;;;;;;-3.20;43.99;101829.81;4204185;28;20244;-67
2022/03/12 01:22:20;;;;;;;34.07;12.80;;;;;;;-3.14;43.09;101823.63;4205594;28;20307;-68
2022/03/12 01:24:48;;;;;;;37.77;13.33;;;;;;;-3.17;43.19;101822.84;4190222;28;22076;-70
2022/03/12 01:27:15;;;;;;;39.87;13.47;;;;;;;-3.24;43.58;101816.84;4177757;28;21270;-68
2022/03/12 01:29:42;;;;;;;34.53;13.17;;;;;;;-3.32;43.81;101819.56;4198115;28;23855;-68
2022/03/12 01:32:09;;;;;;;34.67;13.27;;;;;;;-3.30;43.65;101807.41;4200219;28;20238;-68
2022/03/12 01:34:36;;;;;;;34.20;12.30;;;;;;;-3.42;43.64;101818.84;4179487;28;21826;-70
2022/03/12 01:37:04;;;;;;;41.47;12.57;;;;;;;-3.52;44.14;101819.84;4191789;28;20237;-67
2022/03/12 01:39:31;;;;;;;31.97;11.80;;;;;;;-3.46;44.13;101817.16;4189939;28;26891;-68
2022/03/12 01:41:58;;;;;;;31.20;12.57;;;;;;;-3.47;44.02;101815.44;4197851;28;20368;-67
2022/03/12 01:44:24;;;;;;;35.40;12.67;;;;;;;-3.59;44.59;101809.56;4196249;28;20247;-69
2022/03/12 01:46:51;;;;;;;32.67;12.03;;;;;;;-3.66;44.92;101813.97;4206756;28;20287;-67
2022/03/12 01:49:19;;;;;;;29.60;11.03;;;;;;;-3.72;45.04;101814.94;4185506;28;20240;-69
2022/03/12 01:51:48;;;;;;;34.73;12.13;;;;;;;-3.72;45.42;101819.25;4197794;28;20317;-69
2022/03/12 01:54:20;;;;;;;33.33;12.37;;;;;;;-3.88;45.88;101808.19;4197321;28;20314;-68
2022/03/12 01:56:50;;;;;;;32.23;11.67;;;;;;;-3.89;45.71;101817.72;4199028;28;20237;-68
2022/03/12 01:59:17;;;;;;;36.97;12.43;;;;;;;-3.78;45.84;101811.53;4192318;28;20448;-68
2022/03/12 02:01:43;;;;;;;31.70;11.27;;;;;;;-3.80;45.73;101801.16;4209169;28;21048;-69
2022/03/12 02:04:10;;;;;;;36.73;12.07;;;;;;;-3.75;46.15;101811.50;4189768;28;20238;-70
2022/03/12 02:06:46;;;;;;;32.83;12.23;;;;;;;-3.69;46.07;101814.03;4189437;28;20334;-67
2022/03/12 02:09:15;;;;;;;36.30;12.80;;;;;;;-3.81;46.48;101815.03;4189919;28;20436;-69
2022/03/12 02:11:43;;;;;;;28.90;11.00;;;;;;;-3.76;46.71;101807.19;4194303;28;20255;-69
2022/03/12 02:14:15;;;;;;;32.30;11.97;;;;;;;-3.83;46.31;101809.84;4207924;28;20241;-68
2022/03/12 02:16:57;;;;;;;37.67;12.57;;;;;;;-3.94;46.83;101803.91;4212471;28;20253;-68
2022/03/12 02:19:26;;;;;;;36.27;12.07;;;;;;;-4.01;47.08;101806.63;4201280;28;20295;-68
2022/03/12 02:21:54;;;;;;;34.33;12.33;;;;;;;-3.94;46.74;101803.06;4203417;28;20643;-68
2022/03/12 02:24:23;;;;;;;33.93;12.57;;;;;;;-3.92;46.76;101807.38;4204311;28;22118;-68
2022/03/12 02:26:51;;;;;;;33.13;11.83;;;;;;;-3.95;47.00;101798.75;4191800;28;20237;-68
2022/03/12 02:29:20;;;;;;;33.27;12.10;;;;;;;-3.90;47.31;101790.00;4200706;28;20237;-67
2022/03/12 02:31:52;;;;;;;34.33;12.03;;;;;;;-3.82;46.15;101788.19;4194420;28;20478;-68
2022/03/12 02:34:23;;;;;;;34.83;11.87;;;;;;;-3.83;46.76;101790.78;4197922;28;25889;-67
2022/03/12 02:36:52;;;;;;;30.83;11.13;;;;;;;-3.83;47.00;101785.59;4188464;28;20311;-68
2022/03/12 02:39:20;;;;;;;37.90;12.60;;;;;;;-3.83;47.42;101783.84;4179601;28;20233;-67
2022/03/12 02:41:50;;;;;;;37.20;12.40;;;;;;;-3.92;48.12;101783.97;4202272;28;21109;-68
2022/03/12 02:44:20;;;;;;;40.63;12.37;;;;;;;-3.98;48.87;101785.78;4207662;28;20608;-68
2022/03/12 02:47:11;;;;;;;35.77;12.13;;;;;;;-4.10;48.95;101784.19;4199902;28;20323;-68
2022/03/12 02:49:45;;;;;;;38.23;12.20;;;;;;;-4.13;48.99;101782.47;4212193;28;22956;-68
2022/03/12 02:52:13;;;;;;;29.23;12.03;;;;;;;-4.08;48.55;101785.03;4192600;28;21327;-67
2022/03/12 02:54:41;;;;;;;33.77;12.30;;;;;;;-4.21;48.97;101794.72;4196685;28;20247;-69
2022/03/12 02:57:09;;;;;;;39.70;12.90;;;;;;;-4.14;48.70;101785.97;4204381;28;20232;-68
2022/03/12 02:59:36;;;;;;;42.30;13.13;;;;;;;-4.25;49.55;101783.50;4198758;28;20577;-69
2022/03/12 03:02:07;;;;;;;30.73;12.13;;;;;;;-4.21;49.47;101784.31;4188410;28;20237;-67
2022/03/12 03:04:39;;;;;;;30.13;12.30;;;;;;;-4.19;49.49;101792.09;4178942;28;20339;-68
2022/03/12 03:07:08;;;;;;;39.70;13.30;;;;;;;-4.21;49.64;101793.84;4189081;28;20238;-67
2022/03/12 03:09:35;;;;;;;39.57;12.97;;;;;;;-4.36;50.34;101780.16;4190680;28;21515;-68
2022/03/12 03:12:06;;;;;;;35.70;13.50;;;;;;;-4.43;51.20;101781.09;4196754;28;20384;-66
2022/03/12 03:14:33;;;;;;;42.30;13.77;;;;;;;-4.43;51.57;101780.22;4202869;28;20339;-66
2022/03/12 03:17:00;;;;;;;40.10;13.10;;;;;;;-4.32;50.99;101775.78;4195657;28;20370;-67
2022/03/12 03:19:28;;;;;;;41.27;13.97;;;;;;;-4.33;51.31;101774.03;4194395;28;20244;-68
2022/03/12 03:21:56;;;;;;;38.43;13.70;;;;;;;-4.23;50.14;101770.50;4193036;28;20244;-67
2022/03/12 03:24:24;;;;;;;39.90;12.97;;;;;;;-4.26;49.13;101775.72;4195392;28;22644;-67
2022/03/12 03:26:53;;;;;;;42.30;14.07;;;;;;;-4.16;48.96;101776.47;4195110;28;23639;-68
2022/03/12 03:29:21;;;;;;;42.97;15.13;;;;;;;-4.23;49.54;101769.63;4198131;28;20241;-68
2022/03/12 03:31:48;;;;;;;37.30;14.20;;;;;;;-4.21;49.20;101776.53;4188704;28;20358;-68
2022/03/12 03:34:15;;;;;;;42.60;14.00;;;;;;;-4.24;50.12;101763.56;4198802;28;20495;-69
2022/03/12 03:36:42;;;;;;;42.03;14.80;;;;;;;-4.07;48.78;101768.56;4196444;28;20253;-68
2022/03/12 03:39:08;;;;;;;42.07;14.73;;;;;;;-4.01;48.36;101767.63;4232861;28;20229;-69
2022/03/12 03:41:35;;;;;;;40.10;14.60;;;;;;;-4.02;48.34;101769.38;4194162;28;22089;-69
2022/03/12 03:44:02;;;;;;;46.27;14.77;;;;;;;-4.01;48.51;101760.69;4202093;28;20264;-68
2022/03/12 03:46:28;;;;;;;41.63;14.93;;;;;;;-3.97;48.08;101764.97;4192610;28;21682;-69
2022/03/12 03:48:55;;;;;;;40.43;14.93;;;;;;;-3.94;47.13;101757.13;4195229;28;20315;-68
2022/03/12 03:51:22;;;;;;;39.20;15.07;;;;;;;-4.03;47.61;101757.22;4188141;28;20233;-67
2022/03/12 03:53:49;;;;;;;47.23;15.43;;;;;;;-3.99;48.10;101760.66;4197470;28;25941;-68
2022/03/12 03:56:16;;;;;;;36.90;14.57;;;;;;;-4.06;48.22;101754.69;4193287;28;20411;-68
2022/03/12 03:58:43;;;;;;;48.90;16.03;;;;;;;-4.04;48.74;101760.72;4193457;28;21264;-69
2022/03/12 04:01:17;;;;;;;40.07;14.80;;;;;;;-4.12;48.32;101763.44;4201231;28;20539;-68
2022/03/12 04:03:47;;;;;;;43.47;16.13;;;;;;;-4.20;49.07;101756.59;4193178;28;26676;-69
2022/03/12 04:06:19;;;;;;;43.80;15.37;;;;;;;-4.19;49.06;101763.50;4203117;28;20237;-68
2022/03/12 04:08:46;;;;;;;46.03;15.13;;;;;;;-4.33;49.82;101766.25;4195359;28;20240;-67
2022/03/12 04:11:18;;;;;;;44.43;16.40;;;;;;;-4.34;50.81;101769.75;4198223;28;20414;-70
2022/03/12 04:13:45;;;;;;;37.97;14.40;;;;;;;-4.36;50.73;101774.94;4214817;28;20241;-68
2022/03/12 04:16:13;;;;;;;37.47;13.67;;;;;;;-4.44;51.46;101769.00;4204948;28;20245;-67
2022/03/12 04:18:40;;;;;;;44.87;15.20;;;;;;;-4.44;51.31;101765.53;4185617;28;20329;-69
2022/03/12 04:21:08;;;;;;;43.57;15.40;;;;;;;-4.49;51.23;101768.19;4186801;28;20593;-67
2022/03/12 04:23:35;;;;;;;45.23;15.77;;;;;;;-4.29;50.28;101766.19;4191862;28;21176;-67
2022/03/12 04:26:02;;;;;;;42.37;15.10;;;;;;;-4.16;49.68;101766.09;4188876;28;20226;-68
2022/03/12 04:28:32;;;;;;;55.10;16.87;;;;;;;-4.14;49.85;101766.94;4189734;28;21269;-68
2022/03/12 04:31:00;;;;;;;40.30;13.80;;;;;;;-4.34;50.12;101772.34;4195516;28;21396;-69
2022/03/12 04:33:28;;;;;;;38.67;15.17;;;;;;;-4.58;50.75;101765.69;4194847;28;22892;-70
2022/03/12 04:35:56;;;;;;;41.67;15.03;;;;;;;-4.70;51.33;101767.53;4199038;28;20233;-69
2022/03/12 04:38:23;;;;;;;45.37;16.00;;;;;;;-4.88;51.53;101760.75;4204787;28;20239;-69
2022/03/12 04:40:50;;;;;;;43.83;14.43;;;;;;;-4.84;51.57;101764.19;4192756;28;21808;-69
2022/03/12 04:43:17;;;;;;;48.07;15.60;;;;;;;-4.73;51.19;101769.28;4189448;28;21832;-69
2022/03/12 04:45:45;;;;;;;40.73;15.17;;;;;;;-4.63;51.62;101770.06;4200733;28;20260;-68
2022/03/12 04:48:13;;;;;;;44.07;14.23;;;;;;;-4.63;51.47;101767.47;4214520;28;20237;-69
2022/03/12 04:50:39;;;;;;;45.10;14.80;;;;;;;-4.63;51.79;101765.72;4174514;28;20300;-69
2022/03/12 04:53:08;;;;;;;37.60;13.97;;;;;;;-4.59;51.35;101763.94;4204359;28;21957;-69
2022/03/12 04:55:36;;;;;;;48.60;15.97;;;;;;;-4.54;51.05;101763.03;4190674;28;20300;-69
2022/03/12 04:58:04;;;;;;;47.60;16.30;;;;;;;-4.32;50.33;101761.06;4184635;28;20224;-69
2022/03/12 05:00:32;;;;;;;45.60;16.57;;;;;;;-4.34;50.10;101752.41;4198680;28;22916;-69
2022/03/12 05:03:12;;;;;;;47.67;16.07;;;;;;;-4.50;50.31;101748.25;4211994;28;20241;-69
2022/03/12 05:05:42;;;;;;;47.57;15.53;;;;;;;-4.62;51.91;101746.66;4186818;28;22396;-70
2022/03/12 05:08:11;;;;;;;48.27;15.63;;;;;;;-4.61;51.74;101745.81;4197107;28;20234;-72
2022/03/12 05:10:38;;;;;;;37.87;14.87;;;;;;;-4.51;51.75;101750.00;4200409;28;20246;-70
2022/03/12 05:13:04;;;;;;;41.23;14.83;;;;;;;-4.54;51.45;101743.97;4205029;28;22235;-71
2022/03/12 05:15:39;;;;;;;44.47;14.47;;;;;;;-4.60;51.65;101738.84;4190669;28;20665;-70
2022/03/12 05:18:07;;;;;;;41.10;15.17;;;;;;;-4.41;50.46;101737.78;4226018;28;21780;-68
2022/03/12 05:20:36;;;;;;;38.73;13.97;;;;;;;-4.32;50.19;101734.22;4209683;28;20337;-71
2022/03/12 05:23:06;;;;;;;49.87;15.40;;;;;;;-4.29;50.18;101732.41;4232442;28;21823;-69
2022/03/12 05:25:37;;;;;;;43.17;15.07;;;;;;;-4.23;50.45;101739.31;4214949;28;22863;-72
2022/03/12 05:28:04;;;;;;;50.40;16.10;;;;;;;-4.28;50.88;101744.56;4213156;28;22868;-69
2022/03/12 05:30:31;;;;;;;42.73;15.23;;;;;;;-4.32;50.95;101745.47;4198849;28;20402;-68
2022/03/12 05:32:59;;;;;;;47.67;15.80;;;;;;;-4.30;51.49;101746.31;4234665;28;20244;-67
2022/03/12 05:35:25;;;;;;;41.87;14.93;;;;;;;-4.20;49.75;101746.19;4208090;28;25120;-68
2022/03/12 05:37:53;;;;;;;44.50;15.47;;;;;;;-4.13;50.26;101747.84;4187761;28;20294;-70
2022/03/12 05:40:23;;;;;;;42.33;15.00;;;;;;;-4.00;49.67;101748.53;4197075;28;20322;-68
2022/03/12 05:42:49;;;;;;;40.40;14.60;;;;;;;-3.92;48.47;101752.75;4219949;28;20275;-72
2022/03/12 05:45:19;;;;;;;43.90;14.93;;;;;;;-3.97;48.75;101748.50;4195022;28;20316;-66
2022/03/12 05:47:46;;;;;;;49.87;15.33;;;;;;;-4.02;49.50;101758.97;4194604;28;21959;-66
2022/03/12 05:50:14;;;;;;;41.93;15.10;;;;;;;-4.14;49.81;101753.94;4210466;28;21456;-66
2022/03/12 05:52:49;;;;;;;44.47;16.73;;;;;;;-4.17;50.19;101756.53;4192134;28;23173;-66
2022/03/12 05:55:17;;;;;;;51.83;15.33;;;;;;;-4.10;49.85;101753.88;4207992;28;20319;-66
2022/03/12 05:57:44;;;;;;;49.07;15.13;;;;;;;-3.91;49.38;101759.69;4192021;28;21959;-67
2022/03/12 06:00:11;;;;;;;38.70;14.30;;;;;;;-3.90;48.88;101764.00;4197708;28;20237;-67
2022/03/12 06:02:43;;;;;;;44.33;15.20;;;;;;;-3.84;48.77;101760.44;4192781;28;20236;-66
2022/03/12 06:05:12;;;;;;;45.33;15.80;;;;;;;-3.61;47.96;101765.34;4194311;28;20229;-70
2022/03/12 06:07:43;;;;;;;43.87;14.27;;;;;;;-3.58;48.41;101759.22;4191324;28;20701;-65
2022/03/12 06:10:14;;;;;;;40.83;15.07;;;;;;;-3.38;47.20;101761.56;4195665;28;20467;-67
2022/03/12 06:12:44;;;;;;;43.73;14.77;;;;;;;-3.30;47.60;101754.47;4194530;28;20308;-67
2022/03/12 06:15:12;;;;;;;40.23;14.67;;;;;;;-3.18;47.20;101759.50;4216215;28;20335;-67
2022/03/12 06:17:39;;;;;;;35.20;14.30;;;;;;;-3.06;47.00;101751.47;4205265;28;20964;-67
2022/03/12 06:20:08;;;;;;;40.97;13.60;;;;;;;-2.94;46.37;101752.16;4208505;28;24240;-67
2022/03/12 06:22:35;;;;;;;42.47;13.77;;;;;;;-2.92;46.35;101748.66;4203257;28;20233;-67
2022/03/12 06:25:02;;;;;;;45.30;14.83;;;;;;;-2.83;45.85;101745.88;4198847;28;20237;-67
2022/03/12 06:27:29;;;;;;;41.47;14.03;;;;;;;-2.65;45.56;101752.50;4195635;28;20245;-66
2022/03/12 06:29:57;;;;;;;40.47;14.93;;;;;;;-2.56;44.76;101741.88;4199492;28;21054;-65
2022/03/12 06:32:24;;;;;;;46.80;15.70;;;;;;;-2.39;45.40;101738.09;4258347;28;20311;-66
2022/03/12 06:34:50;;;;;;;47.13;15.77;;;;;;;-2.13;44.64;101754.09;4284542;28;20239;-66
2022/03/12 06:37:17;;;;;;;41.90;14.70;;;;;;;-1.91;43.56;101748.44;4249418;28;25632;-66
2022/03/12 06:39:44;;;;;;;47.07;14.93;;;;;;;-1.70;42.84;101747.09;4234589;28;20234;-65
2022/03/12 06:42:10;;;;;;;39.77;14.87;;;;;;;-1.57;42.06;101750.28;4221744;28;20296;-66
2022/03/12 06:44:38;;;;;;;43.97;14.77;;;;;;;-1.34;41.09;101748.00;4280028;28;22450;-64
2022/03/12 06:47:09;;;;;;;44.60;14.80;;;;;;;-1.21;40.95;101751.19;4226071;28;20278;-67
2022/03/12 06:49:36;;;;;;;35.63;14.47;;;;;;;-1.00;40.60;101760.25;4284757;28;21036;-65
2022/03/12 06:52:05;;;;;;;42.37;15.07;;;;;;;-0.72;39.82;101762.16;4256383;28;22602;-67
2022/03/12 06:54:33;;;;;;;46.63;15.13;;;;;;;-0.66;39.18;101761.97;4289542;28;21472;-65
2022/03/12 06:57:02;;;;;;;44.87;15.47;;;;;;;-0.60;39.61;101774.03;4253489;28;20237;-66
2022/03/12 06:59:28;;;;;;;45.07;15.03;;;;;;;-0.58;39.39;101780.94;4275080;28;20315;-65
2022/03/12 07:01:55;;;;;;;39.60;14.43;;;;;;;-0.41;39.56;101790.94;4245244;28;20303;-67
2022/03/12 07:04:22;;;;;;;41.17;14.20;;;;;;;-0.18;38.86;101792.94;4230945;28;20593;-67
2022/03/12 07:06:49;;;;;;;40.03;14.20;;;;;;;0.06;38.07;101795.75;4193995;28;20229;-68
2022/03/12 07:09:16;;;;;;;43.47;14.60;;;;;;;0.05;38.68;101794.91;4225483;28;20247;-67
2022/03/12 07:11:43;;;;;;;40.73;15.10;;;;;;;0.38;38.77;101787.81;4208685;28;20232;-69
2022/03/12 07:14:10;;;;;;;52.43;15.67;;;;;;;0.66;36.97;101786.97;4229681;28;20671;-67
2022/03/12 07:16:36;;;;;;;37.10;13.60;;;;;;;0.82;36.58;101787.34;4210912;28;20240;-68
2022/03/12 07:19:04;;;;;;;37.00;14.47;;;;;;;0.97;36.46;101783.38;4239620;28;20405;-67
2022/03/12 07:21:30;;;;;;;38.13;14.57;;;;;;;0.89;36.38;101785.38;4214909;28;20347;-65
2022/03/12 07:23:57;;;;;;;37.23;14.23;;;;;;;0.99;35.95;101787.66;4258016;28;20415;-68
2022/03/12 07:26:24;;;;;;;37.63;13.83;;;;;;;1.36;35.91;101785.53;4258478;28;21450;-68
2022/03/12 07:28:51;;;;;;;42.53;14.70;;;;;;;1.72;35.11;101793.91;4245646;28;20249;-67
2022/03/12 07:31:17;;;;;;;35.37;14.20;;;;;;;2.08;34.10;101794.34;4227211;28;20237;-69
2022/03/12 07:33:44;;;;;;;42.90;14.93;;;;;;;2.56;33.96;101792.53;4216024;28;20408;-67
2022/03/12 07:36:11;;;;;;;35.37;13.60;;;;;;;4.06;31.52;101801.13;4200154;28;25346;-69
2022/03/12 07:38:38;;;;;;;43.83;15.73;;;;;;;6.80;28.05;101811.06;4211075;28;20234;-67
2022/03/12 07:41:05;;;;;;;35.97;14.17;;;;;;;10.00;23.94;101828.97;4210461;28;20715;-67
2022/03/12 07:43:32;;;;;;;32.47;11.83;;;;;;;11.27;19.99;101843.75;4246732;28;21705;-67
2022/03/12 07:46:03;;;;;;;26.73;11.43;;;;;;;13.84;17.93;101858.00;4208967;28;21837;-68
2022/03/12 07:48:30;;;;;;;29.83;12.20;;;;;;;16.09;15.17;101869.03;4234780;28;21941;-69
2022/03/12 07:51:06;;;;;;;26.53;11.50;;;;;;;18.15;12.89;101867.47;4206968;28;20763;-66
2022/03/12 07:53:33;;;;;;;30.67;12.63;;;;;;;19.91;11.50;101871.94;4201563;28;20991;-64
2022/03/12 07:56:00;;;;;;;29.13;12.70;;;;;;;20.56;10.16;101879.06;4201311;28;20241;-67
2022/03/12 07:58:28;;;;;;;30.53;12.23;;;;;;;19.95;10.55;101877.84;4199656;28;21440;-67
2022/03/12 08:00:56;;;;;;;34.77;13.60;;;;;;;19.72;10.87;101878.53;4200518;28;20341;-68
2022/03/12 08:03:23;;;;;;;28.87;12.47;;;;;;;20.08;10.33;101864.63;4230362;28;25032;-67
2022/03/12 08:05:50;;;;;;;32.37;12.50;;;;;;;18.93;11.20;101855.66;4204303;28;20348;-68
2022/03/12 08:08:17;;;;;;;27.93;11.53;;;;;;;16.85;11.85;101852.69;4200389;28;20355;-68
2022/03/12 08:13:29;;;;;;;33.23;12.87;;;;;;;16.66;12.30;101850.09;4228545;28;20337;-68
2022/03/12 08:15:57;;;;;;;28.63;12.87;;;;;;;16.40;12.64;101842.75;4221099;28;20248;-70
2022/03/12 08:18:24;;;;;;;27.07;11.53;;;;;;;17.59;12.31;101844.50;4230765;28;20319;-68
2022/03/12 08:20:52;;;;;;;22.80;10.60;;;;;;;19.32;10.89;101847.81;4207909;28;20327;-67
2022/03/12 08:23:18;;;;;;;22.50;11.07;;;;;;;19.46;10.81;101845.44;4204050;28;20230;-70
2022/03/12 08:25:45;;;;;;;25.17;10.57;;;;;;;17.91;11.30;101841.19;4187017;28;21364;-67
2022/03/12 08:28:14;;;;;;;20.67;9.77;;;;;;;17.20;12.01;101839.44;4191684;28;20237;-67
2022/03/12 08:30:41;;;;;;;24.70;9.27;;;;;;;17.76;11.77;101846.28;4232351;28;20228;-68
2022/03/12 08:33:08;;;;;;;22.70;9.80;;;;;;;16.62;12.83;101846.03;4208229;28;20240;-67
2022/03/12 08:35:35;;;;;;;28.43;9.50;;;;;;;16.94;12.04;101850.13;4212478;28;20283;-67
2022/03/12 08:38:07;;;;;;;15.93;8.83;;;;;;;16.03;12.33;101842.75;4233724;28;20313;-68
2022/03/12 08:40:35;;;;;;;20.47;9.40;;;;;;;16.48;12.83;101849.22;4197731;28;26628;-67
2022/03/12 08:43:01;;;;;;;21.70;8.53;;;;;;;17.45;11.73;101853.97;4190210;28;21111;-69
2022/03/12 08:45:28;;;;;;;19.10;7.23;;;;;;;18.45;10.66;101858.00;4199637;28;21415;-69
2022/03/12 08:47:55;;;;;;;18.03;6.90;;;;;;;16.90;11.54;101859.47;4210075;28;20385;-66
2022/03/12 08:50:23;;;;;;;16.20;6.97;;;;;;;16.72;11.57;101857.59;4233999;28;20484;-69
2022/03/12 08:52:49;;;;;;;17.77;7.77;;;;;;;16.03;12.60;101846.28;4207288;28;20232;-59
2022/03/12 08:55:16;;;;;;;17.77;8.23;;;;;;;14.18;13.76;101839.88;4227519;28;20236;-69
2022/03/12 08:57:42;;;;;;;15.90;7.30;;;;;;;12.89;14.83;101829.34;4259156;28;20333;-70
2022/03/12 09:00:12;;;;;;;17.07;5.80;;;;;;;10.75;16.12;101815.66;4272545;28;20231;-66
2022/03/12 09:02:40;;;;;;;15.73;5.93;;;;;;;9.42;17.68;101807.25;4282666;28;20545;-70
2022/03/12 09:05:10;;;;;;;13.00;6.17;;;;;;;8.49;18.68;101801.78;4278204;28;20240;-68
2022/03/12 09:07:37;;;;;;;11.83;5.07;;;;;;;8.69;18.78;101807.66;4295226;28;20243;-69
2022/03/12 09:10:06;;;;;;;13.03;5.53;;;;;;;8.04;19.43;101809.00;4248581;28;22453;-71
2022/03/12 09:12:34;;;;;;;11.63;4.17;;;;;;;8.02;19.21;101798.50;4234734;28;20281;-68
2022/03/12 09:15:00;;;;;;;15.87;5.37;;;;;;;7.60;19.91;101802.81;4288597;28;20306;-71
2022/03/12 09:17:27;;;;;;;12.87;4.43;;;;;;;7.06;20.01;101796.34;4226050;28;20284;-70
2022/03/12 09:19:54;;;;;;;15.03;5.27;;;;;;;6.92;20.70;101789.19;4237860;28;20411;-68
2022/03/12 09:22:21;;;;;;;14.60;5.17;;;;;;;6.83;21.28;101784.41;4229861;28;20318;-69
2022/03/12 09:24:48;;;;;;;13.20;4.80;;;;;;;7.00;20.75;101786.09;4222757;28;21804;-69
2022/03/12 09:27:15;;;;;;;15.90;4.67;;;;;;;6.74;21.11;101786.66;4254874;28;22919;-69
2022/03/12 09:29:42;;;;;;;13.00;4.50;;;;;;;6.64;21.57;101780.16;4319818;28;20244;-68
2022/03/12 09:32:09;;;;;;;11.37;4.80;;;;;;;6.35;22.32;101776.50;4359215;28;20597;-68
2022/03/12 09:34:37;;;;;;;12.87;5.00;;;;;;;5.69;23.48;101769.47;4341932;28;20308;-68
2022/03/12 09:37:05;;;;;;;10.47;4.40;;;;;;;6.49;22.19;101776.59;4307519;28;20236;-69
2022/03/12 09:39:32;;;;;;;10.00;4.53;;;;;;;6.40;22.08;101782.41;4290346;28;20233;-68
2022/03/12 09:42:00;;;;;;;15.47;5.50;;;;;;;6.36;22.62;101769.44;4274913;28;20382;-70
2022/03/12 09:44:26;;;;;;;12.03;5.10;;;;;;;6.36;22.93;101761.50;4320444;28;22055;-71
2022/03/12 09:46:53;;;;;;;12.50;5.70;;;;;;;6.26;22.07;101763.81;4298038;28;20279;-69
2022/03/12 09:49:20;;;;;;;17.00;5.77;;;;;;;6.47;22.37;101761.75;4278457;28;20241;-71
2022/03/12 09:51:52;;;;;;;12.10;5.60;;;;;;;6.79;21.90;101759.06;4263085;28;20717;-72
2022/03/12 09:54:22;;;;;;;13.43;5.80;;;;;;;6.72;22.87;101755.94;4245373;28;20453;-67
2022/03/12 09:56:49;;;;;;;12.77;5.77;;;;;;;6.40;22.19;101744.53;4256909;28;23401;-68
2022/03/12 09:59:16;;;;;;;18.70;5.87;;;;;;;6.28;23.39;101739.00;4271672;28;20865;-66
2022/03/12 10:01:43;;;;;;;14.73;5.33;;;;;;;6.38;24.08;101730.53;4226067;28;21424;-66
2022/03/12 10:04:12;;;;;;;16.60;5.80;;;;;;;6.34;25.45;101735.13;4244732;28;22126;-66
2022/03/12 10:06:40;;;;;;;15.17;5.63;;;;;;;6.44;23.84;101730.19;4246975;28;20235;-69
2022/03/12 10:09:07;;;;;;;23.43;6.50;;;;;;;6.58;24.44;101732.94;4207390;28;20758;-68
2022/03/12 10:11:34;;;;;;;18.00;6.57;;;;;;;6.49;23.81;101723.72;4211940;28;20268;-70
2022/03/12 10:14:00;;;;;;;38.90;15.30;;;;;;;5.88;25.32;101709.44;4214661;28;20275;-69
2022/03/12 10:16:29;;;;;;;16.90;6.23;;;;;;;5.77;25.06;101710.94;4233562;28;20228;-69
2022/03/12 10:18:56;;;;;;;20.37;7.03;;;;;;;5.85;25.02;101711.38;4245073;28;21676;-69
2022/03/12 10:21:25;;;;;;;18.87;8.10;;;;;;;5.52;26.49;101704.31;4233071;28;21346;-72
2022/03/12 10:23:52;;;;;;;20.97;7.00;;;;;;;5.34;27.34;101698.25;4229538;28;20232;-69
2022/03/12 10:26:19;;;;;;;20.07;7.17;;;;;;;5.65;26.86;101688.69;4209535;28;20274;-72
2022/03/12 10:28:45;;;;;;;22.07;6.70;;;;;;;5.96;25.34;101692.34;4215187;28;22642;-70
2022/03/12 10:31:12;;;;;;;20.83;6.97;;;;;;;5.71;25.83;101683.06;4204336;28;20234;-68
2022/03/12 10:33:39;;;;;;;18.63;7.40;;;;;;;5.39;25.79;101682.16;4227167;28;21334;-71
2022/03/12 10:36:16;;;;;;;17.33;6.60;;;;;;;5.38;26.01;101672.53;4209669;28;20542;-67
2022/03/12 10:38:48;;;;;;;15.47;6.03;;;;;;;5.27;26.73;101673.09;4206428;28;20477;-71
2022/03/12 10:41:15;;;;;;;17.23;5.93;;;;;;;5.50;26.00;101685.94;4187681;28;20331;-71
2022/03/12 10:43:46;;;;;;;15.20;6.10;;;;;;;5.39;25.89;101682.16;4181701;28;20309;-72
2022/03/12 10:46:27;;;;;;;14.67;6.20;;;;;;;5.36;24.79;101683.19;4200887;28;20276;-69
2022/03/12 10:48:58;;;;;;;16.37;6.17;;;;;;;5.83;25.37;101671.84;4230040;28;20319;-68
2022/03/12 10:51:31;;;;;;;13.97;5.30;;;;;;;6.01;26.20;101674.44;4195980;28;20283;-69
2022/03/12 10:54:10;;;;;;;19.27;5.80;;;;;;;6.13;24.85;101679.03;4195831;28;20553;-69
2022/03/12 10:56:48;;;;;;;15.47;6.20;;;;;;;6.21;23.66;101676.84;4222894;28;20232;-68
2022/03/12 10:59:22;;;;;;;15.13;6.17;;;;;;;6.00;24.59;101678.03;4188439;28;20227;-71
2022/03/12 11:02:01;;;;;;;15.80;6.13;;;;;;;5.97;23.58;101672.91;4193535;28;20240;-69
2022/03/12 11:04:30;;;;;;;20.70;5.93;;;;;;;5.75;25.19;101676.69;4185082;28;20314;-71
2022/03/12 11:07:01;;;;;;;17.03;5.87;;;;;;;5.73;23.55;101681.19;4253732;28;20235;-69
2022/03/12 11:09:36;;;;;;;13.37;5.60;;;;;;;5.97;24.20;101673.78;4194848;28;23612;-71
2022/03/12 11:12:05;;;;;;;21.37;7.10;;;;;;;5.91;26.25;101674.06;4218983;28;20235;-68
2022/03/12 11:14:32;;;;;;;18.00;6.60;;;;;;;5.25;25.54;101667.03;4249586;28;20380;-70
2022/03/12 11:16:59;;;;;;;13.97;5.87;;;;;;;5.48;26.59;101666.69;4226778;28;21843;-70
2022/03/12 11:19:41;;;;;;;16.43;6.70;;;;;;;5.84;24.63;101657.69;4217753;28;20228;-70
2022/03/12 11:22:12;;;;;;;18.33;6.47;;;;;;;5.70;25.82;101653.16;4210884;28;20576;-71